sensor_id;sensor_type;location;lat;lon;timestamp;pressure;altitude;pressure_sealevel;temperature;humidity
34031;BME280;20319;28.466;-16.274;2023-07-29T00:00:38;95679.16;;;18.89;93.23
34031;BME280;20319;28.466;-16.274;2023-07-29T00:03:05;95607.31;;;18.38;93.85
34031;BME280;20319;28.466;-16.274;2023-07-29T00:05:30;95734.44;;;19.15;94.41
34031;BME280;20319;28.466;-16.274;2023-07-29T00:07:56;95591.78;;;18.30;94.43
34031;BME280;20319;28.466;-16.274;2023-07-29T00:10:22;95633.75;;;18.59;94.49
34031;BME280;20319;28.466;-16.274;2023-07-29T00:12:48;95720.00;;;19.06;93.19
34031;BME280;20319;28.466;-16.274;2023-07-29T00:15:13;95758.25;;;19.18;92.52
34031;BME280;20319;28.466;-16.274;2023-07-29T00:17:39;95765.91;;;19.30;91.81
34031;BME280;20319;28.466;-16.274;2023-07-29T00:20:06;95753.53;;;19.24;91.26
34031;BME280;20319;28.466;-16.274;2023-07-29T00:22:32;95728.66;;;19.08;91.18
34031;BME280;20319;28.466;-16.274;2023-07-29T00:24:58;95737.06;;;19.21;90.49
34031;BME280;20319;28.466;-16.274;2023-07-29T00:27:25;95576.22;;;18.22;90.30
34031;BME280;20319;28.466;-16.274;2023-07-29T00:29:50;95617.59;;;18.41;90.12
34031;BME280;20319;28.466;-16.274;2023-07-29T00:32:16;95594.88;;;18.37;90.30
34031;BME280;20319;28.466;-16.274;2023-07-29T00:34:42;95733.53;;;19.20;90.47
34031;BME280;20319;28.466;-16.274;2023-07-29T00:37:07;95738.09;;;19.11;90.35
34031;BME280;20319;28.466;-16.274;2023-07-29T00:39:33;95728.97;;;19.07;90.71
34031;BME280;20319;28.466;-16.274;2023-07-29T00:41:58;95732.75;;;19.20;90.44
34031;BME280;20319;28.466;-16.274;2023-07-29T00:44:24;95728.09;;;19.20;89.93
34031;BME280;20319;28.466;-16.274;2023-07-29T00:46:52;95563.00;;;18.20;89.51
34031;BME280;20319;28.466;-16.274;2023-07-29T00:49:18;95696.41;;;19.07;89.50
34031;BME280;20319;28.466;-16.274;2023-07-29T00:51:44;95572.00;;;18.29;89.89
34031;BME280;20319;28.466;-16.274;2023-07-29T00:54:10;95682.31;;;19.05;90.12
34031;BME280;20319;28.466;-16.274;2023-07-29T00:56:36;95696.31;;;19.21;90.10
34031;BME280;20319;28.466;-16.274;2023-07-29T00:59:02;95529.34;;;18.21;89.67
34031;BME280;20319;28.466;-16.274;2023-07-29T01:01:28;95689.09;;;19.16;90.25
34031;BME280;20319;28.466;-16.274;2023-07-29T01:03:54;95716.34;;;19.25;90.70
34031;BME280;20319;28.466;-16.274;2023-07-29T01:06:46;95714.00;;;19.32;90.71
34031;BME280;20319;28.466;-16.274;2023-07-29T01:09:31;95701.31;;;19.27;90.10
34031;BME280;20319;28.466;-16.274;2023-07-29T01:17:27;95529.34;;;18.21;87.99
34031;BME280;20319;28.466;-16.274;2023-07-29T01:22:21;95669.41;;;19.10;87.72
34031;BME280;20319;28.466;-16.274;2023-07-29T01:24:47;95686.59;;;19.20;88.12
34031;BME280;20319;28.466;-16.274;2023-07-29T01:27:12;95677.81;;;19.23;88.93
34031;BME280;20319;28.466;-16.274;2023-07-29T01:29:38;95702.03;;;19.33;90.31
34031;BME280;20319;28.466;-16.274;2023-07-29T01:32:09;95519.63;;;18.20;91.12
34031;BME280;20319;28.466;-16.274;2023-07-29T01:34:46;95703.13;;;19.32;92.06
34031;BME280;20319;28.466;-16.274;2023-07-29T01:37:19;95670.09;;;19.16;92.05
34031;BME280;20319;28.466;-16.274;2023-07-29T01:39:50;95664.16;;;19.14;92.11
34031;BME280;20319;28.466;-16.274;2023-07-29T01:42:16;95694.00;;;19.28;91.50
34031;BME280;20319;28.466;-16.274;2023-07-29T01:44:42;95691.28;;;19.28;91.63
34031;BME280;20319;28.466;-16.274;2023-07-29T01:47:08;95492.06;;;18.05;91.19
34031;BME280;20319;28.466;-16.274;2023-07-29T01:49:34;95661.38;;;19.05;91.20
34031;BME280;20319;28.466;-16.274;2023-07-29T01:51:59;95672.88;;;19.25;91.12
34031;BME280;20319;28.466;-16.274;2023-07-29T01:54:25;95471.31;;;18.00;90.96
34031;BME280;20319;28.466;-16.274;2023-07-29T01:56:51;95503.03;;;18.22;90.71
34031;BME280;20319;28.466;-16.274;2023-07-29T01:59:16;95664.88;;;19.20;90.92
34031;BME280;20319;28.466;-16.274;2023-07-29T02:01:42;95681.16;;;19.20;91.14
34031;BME280;20319;28.466;-16.274;2023-07-29T02:04:08;95531.94;;;18.26;91.30
34031;BME280;20319;28.466;-16.274;2023-07-29T02:06:33;95635.47;;;18.99;91.19
34031;BME280;20319;28.466;-16.274;2023-07-29T02:08:59;95655.38;;;19.08;91.53
34031;BME280;20319;28.466;-16.274;2023-07-29T02:11:25;95643.81;;;19.03;91.21
34031;BME280;20319;28.466;-16.274;2023-07-29T02:13:54;95638.88;;;19.05;91.04
34031;BME280;20319;28.466;-16.274;2023-07-29T02:16:20;95459.84;;;18.03;90.62
34031;BME280;20319;28.466;-16.274;2023-07-29T02:18:46;95456.84;;;18.05;90.26
34031;BME280;20319;28.466;-16.274;2023-07-29T02:21:11;95646.31;;;19.22;89.91
34031;BME280;20319;28.466;-16.274;2023-07-29T02:23:37;95653.56;;;19.26;89.75
34031;BME280;20319;28.466;-16.274;2023-07-29T02:26:03;95663.75;;;19.21;89.39
34031;BME280;20319;28.466;-16.274;2023-07-29T02:28:28;95469.44;;;18.23;89.45
34031;BME280;20319;28.466;-16.274;2023-07-29T02:31:21;95616.31;;;19.18;89.12
34031;BME280;20319;28.466;-16.274;2023-07-29T02:33:48;95641.53;;;19.18;89.26
34031;BME280;20319;28.466;-16.274;2023-07-29T02:36:14;95641.41;;;19.24;89.11
34031;BME280;20319;28.466;-16.274;2023-07-29T02:38:41;95639.81;;;19.23;89.30
34031;BME280;20319;28.466;-16.274;2023-07-29T02:41:07;95645.50;;;19.35;89.40
34031;BME280;20319;28.466;-16.274;2023-07-29T02:43:37;95622.03;;;19.17;89.47
34031;BME280;20319;28.466;-16.274;2023-07-29T02:46:04;95471.22;;;18.27;89.30
34031;BME280;20319;28.466;-16.274;2023-07-29T02:48:29;95439.34;;;18.11;89.45
34031;BME280;20319;28.466;-16.274;2023-07-29T02:50:55;95627.72;;;19.29;90.05
34031;BME280;20319;28.466;-16.274;2023-07-29T02:53:24;95469.59;;;18.26;90.21
34031;BME280;20319;28.466;-16.274;2023-07-29T02:55:50;95601.94;;;18.95;90.73
34031;BME280;20319;28.466;-16.274;2023-07-29T02:58:16;95465.41;;;18.20;91.02
34031;BME280;20319;28.466;-16.274;2023-07-29T03:00:42;95612.91;;;19.12;91.42
34031;BME280;20319;28.466;-16.274;2023-07-29T03:03:08;95600.38;;;19.03;91.93
34031;BME280;20319;28.466;-16.274;2023-07-29T03:05:34;95609.34;;;19.03;93.36
34031;BME280;20319;28.466;-16.274;2023-07-29T03:08:00;95636.59;;;19.21;94.65
34031;BME280;20319;28.466;-16.274;2023-07-29T03:10:26;95636.09;;;19.18;95.54
34031;BME280;20319;28.466;-16.274;2023-07-29T03:12:53;95646.84;;;19.01;96.69
34031;BME280;20319;28.466;-16.274;2023-07-29T03:15:23;95404.09;;;17.66;100.00
34031;BME280;20319;28.466;-16.274;2023-07-29T03:17:50;95613.16;;;18.80;100.00
34031;BME280;20319;28.466;-16.274;2023-07-29T03:20:16;95632.84;;;18.86;100.00
34031;BME280;20319;28.466;-16.274;2023-07-29T03:22:43;95632.63;;;18.82;100.00
34031;BME280;20319;28.466;-16.274;2023-07-29T03:25:09;95443.78;;;17.71;100.00
34031;BME280;20319;28.466;-16.274;2023-07-29T03:27:35;95608.94;;;18.74;100.00
34031;BME280;20319;28.466;-16.274;2023-07-29T03:30:03;95477.97;;;17.94;100.00
34031;BME280;20319;28.466;-16.274;2023-07-29T03:32:29;95477.38;;;17.84;100.00
34031;BME280;20319;28.466;-16.274;2023-07-29T03:34:54;95596.75;;;18.63;100.00
34031;BME280;20319;28.466;-16.274;2023-07-29T03:37:20;95481.75;;;17.93;100.00
34031;BME280;20319;28.466;-16.274;2023-07-29T03:39:47;95630.31;;;18.89;100.00
34031;BME280;20319;28.466;-16.274;2023-07-29T03:42:12;95544.47;;;18.36;100.00
34031;BME280;20319;28.466;-16.274;2023-07-29T03:44:38;95612.66;;;18.78;100.00
34031;BME280;20319;28.466;-16.274;2023-07-29T03:47:05;95505.19;;;18.11;100.00
34031;BME280;20319;28.466;-16.274;2023-07-29T03:49:31;95586.72;;;18.50;100.00
34031;BME280;20319;28.466;-16.274;2023-07-29T03:51:57;95608.09;;;18.65;97.74
34031;BME280;20319;28.466;-16.274;2023-07-29T03:54:23;95618.44;;;18.63;95.53
34031;BME280;20319;28.466;-16.274;2023-07-29T03:56:48;95616.78;;;18.76;93.03
34031;BME280;20319;28.466;-16.274;2023-07-29T03:59:14;95635.75;;;18.89;91.54
34031;BME280;20319;28.466;-16.274;2023-07-29T04:01:40;95608.66;;;18.76;90.71
34031;BME280;20319;28.466;-16.274;2023-07-29T04:04:05;95437.25;;;17.72;90.24
34031;BME280;20319;28.466;-16.274;2023-07-29T04:06:31;95440.25;;;17.84;89.40
34031;BME280;20319;28.466;-16.274;2023-07-29T04:08:57;95632.75;;;18.99;89.48
34031;BME280;20319;28.466;-16.274;2023-07-29T04:11:23;95627.84;;;19.01;89.12
34031;BME280;20319;28.466;-16.274;2023-07-29T04:13:49;95452.25;;;17.92;88.98
34031;BME280;20319;28.466;-16.274;2023-07-29T04:16:15;95583.72;;;18.74;88.90
34031;BME280;20319;28.466;-16.274;2023-07-29T04:18:42;95605.19;;;18.84;89.13
34031;BME280;20319;28.466;-16.274;2023-07-29T04:21:07;95585.53;;;18.78;88.99
34031;BME280;20319;28.466;-16.274;2023-07-29T04:23:33;95645.41;;;19.04;88.98
34031;BME280;20319;28.466;-16.274;2023-07-29T04:25:59;95470.06;;;18.06;88.52
34031;BME280;20319;28.466;-16.274;2023-07-29T04:28:24;95450.88;;;17.94;88.39
34031;BME280;20319;28.466;-16.274;2023-07-29T04:30:50;95595.16;;;18.84;88.47
34031;BME280;20319;28.466;-16.274;2023-07-29T04:33:15;95448.63;;;17.96;88.06
34031;BME280;20319;28.466;-16.274;2023-07-29T04:35:41;95632.41;;;19.14;87.90
34031;BME280;20319;28.466;-16.274;2023-07-29T04:38:06;95442.59;;;17.99;87.79
34031;BME280;20319;28.466;-16.274;2023-07-29T04:40:33;95474.03;;;18.22;87.85
34031;BME280;20319;28.466;-16.274;2023-07-29T04:43:02;95616.47;;;18.99;87.42
34031;BME280;20319;28.466;-16.274;2023-07-29T04:45:29;95639.31;;;19.21;87.42
34031;BME280;20319;28.466;-16.274;2023-07-29T04:47:55;95565.34;;;18.71;87.53
34031;BME280;20319;28.466;-16.274;2023-07-29T04:50:20;95509.78;;;18.24;87.63
34031;BME280;20319;28.466;-16.274;2023-07-29T04:52:46;95470.94;;;18.15;87.77
34031;BME280;20319;28.466;-16.274;2023-07-29T04:55:12;95616.47;;;18.99;88.21
34031;BME280;20319;28.466;-16.274;2023-07-29T04:57:37;95663.34;;;19.13;88.60
34031;BME280;20319;28.466;-16.274;2023-07-29T05:00:03;95619.69;;;19.01;89.02
34031;BME280;20319;28.466;-16.274;2023-07-29T05:02:29;95631.41;;;19.10;89.42
34031;BME280;20319;28.466;-16.274;2023-07-29T05:04:54;95647.75;;;19.19;89.43
34031;BME280;20319;28.466;-16.274;2023-07-29T05:07:20;95610.09;;;18.95;89.95
34031;BME280;20319;28.466;-16.274;2023-07-29T05:09:46;95640.47;;;19.06;89.82
34031;BME280;20319;28.466;-16.274;2023-07-29T05:12:12;95532.00;;;18.48;89.64
34031;BME280;20319;28.466;-16.274;2023-07-29T05:14:38;95629.25;;;18.99;90.09
34031;BME280;20319;28.466;-16.274;2023-07-29T05:17:03;95656.03;;;19.14;90.27
34031;BME280;20319;28.466;-16.274;2023-07-29T05:19:29;95591.13;;;18.82;90.35
34031;BME280;20319;28.466;-16.274;2023-07-29T05:21:55;95645.72;;;19.02;91.33
34031;BME280;20319;28.466;-16.274;2023-07-29T05:24:21;95621.78;;;19.04;91.83
34031;BME280;20319;28.466;-16.274;2023-07-29T05:26:48;95344.09;;;17.24;92.10
34031;BME280;20319;28.466;-16.274;2023-07-29T05:29:13;95622.41;;;19.01;92.90
34031;BME280;20319;28.466;-16.274;2023-07-29T05:31:39;95615.31;;;18.92;92.98
34031;BME280;20319;28.466;-16.274;2023-07-29T05:34:05;95634.25;;;19.05;93.70
34031;BME280;20319;28.466;-16.274;2023-07-29T05:36:30;95641.28;;;19.06;94.11
34031;BME280;20319;28.466;-16.274;2023-07-29T05:38:56;95640.47;;;19.06;95.19
34031;BME280;20319;28.466;-16.274;2023-07-29T05:41:21;95482.72;;;18.11;96.69
34031;BME280;20319;28.466;-16.274;2023-07-29T05:43:47;95502.94;;;18.27;98.11
34031;BME280;20319;28.466;-16.274;2023-07-29T05:46:13;95476.31;;;18.07;99.36
34031;BME280;20319;28.466;-16.274;2023-07-29T05:48:38;95524.19;;;18.33;99.86
34031;BME280;20319;28.466;-16.274;2023-07-29T05:51:04;95524.19;;;18.33;100.00
34031;BME280;20319;28.466;-16.274;2023-07-29T05:53:32;95487.81;;;18.12;100.00
34031;BME280;20319;28.466;-16.274;2023-07-29T05:55:58;95498.03;;;18.15;100.00
34031;BME280;20319;28.466;-16.274;2023-07-29T05:58:23;95490.16;;;18.05;100.00
34031;BME280;20319;28.466;-16.274;2023-07-29T06:00:49;95670.09;;;19.16;100.00
34031;BME280;20319;28.466;-16.274;2023-07-29T06:03:15;95642.88;;;18.85;100.00
34031;BME280;20319;28.466;-16.274;2023-07-29T06:05:40;95670.03;;;19.07;100.00
34031;BME280;20319;28.466;-16.274;2023-07-29T06:08:06;95485.19;;;17.85;100.00
34031;BME280;20319;28.466;-16.274;2023-07-29T06:10:33;95552.56;;;18.14;98.73
34031;BME280;20319;28.466;-16.274;2023-07-29T06:12:59;95688.16;;;18.98;96.40
34031;BME280;20319;28.466;-16.274;2023-07-29T06:15:25;95516.38;;;17.96;94.89
34031;BME280;20319;28.466;-16.274;2023-07-29T06:17:50;95488.41;;;17.87;93.23
34031;BME280;20319;28.466;-16.274;2023-07-29T06:20:16;95487.59;;;17.87;92.31
34031;BME280;20319;28.466;-16.274;2023-07-29T06:22:42;95661.84;;;18.99;91.53
34031;BME280;20319;28.466;-16.274;2023-07-29T06:25:08;95659.47;;;18.84;91.13
34031;BME280;20319;28.466;-16.274;2023-07-29T06:27:34;95660.28;;;18.84;90.76
34031;BME280;20319;28.466;-16.274;2023-07-29T06:29:59;95648.41;;;18.80;90.23
34031;BME280;20319;28.466;-16.274;2023-07-29T06:32:26;95668.31;;;18.89;89.91
34031;BME280;20319;28.466;-16.274;2023-07-29T06:34:51;95688.06;;;19.03;89.74
34031;BME280;20319;28.466;-16.274;2023-07-29T06:37:19;95549.34;;;18.12;89.46
34031;BME280;20319;28.466;-16.274;2023-07-29T06:39:45;95676.44;;;18.89;89.70
34031;BME280;20319;28.466;-16.274;2023-07-29T06:42:10;95510.56;;;17.89;89.11
34031;BME280;20319;28.466;-16.274;2023-07-29T06:44:36;95656.66;;;18.75;88.96
34031;BME280;20319;28.466;-16.274;2023-07-29T06:47:01;95708.66;;;19.04;88.58
34031;BME280;20319;28.466;-16.274;2023-07-29T06:49:27;95719.50;;;19.04;88.22
34031;BME280;20319;28.466;-16.274;2023-07-29T06:51:53;95557.88;;;18.19;88.18
34031;BME280;20319;28.466;-16.274;2023-07-29T06:54:18;95694.97;;;19.09;87.81
34031;BME280;20319;28.466;-16.274;2023-07-29T06:56:44;95717.53;;;19.18;87.92
34031;BME280;20319;28.466;-16.274;2023-07-29T06:59:09;95576.69;;;18.37;87.67
34031;BME280;20319;28.466;-16.274;2023-07-29T07:01:35;95702.38;;;19.17;87.85
34031;BME280;20319;28.466;-16.274;2023-07-29T07:04:00;95715.31;;;19.21;87.61
34031;BME280;20319;28.466;-16.274;2023-07-29T07:06:26;95701.09;;;19.15;87.05
34031;BME280;20319;28.466;-16.274;2023-07-29T07:08:52;95711.38;;;19.27;86.87
34031;BME280;20319;28.466;-16.274;2023-07-29T07:11:20;95739.81;;;19.43;86.84
34031;BME280;20319;28.466;-16.274;2023-07-29T07:13:46;95541.19;;;18.25;86.79
34031;BME280;20319;28.466;-16.274;2023-07-29T07:16:12;95632.63;;;18.82;86.90
34031;BME280;20319;28.466;-16.274;2023-07-29T07:18:37;95693.00;;;19.24;86.98
34031;BME280;20319;28.466;-16.274;2023-07-29T07:21:03;95742.03;;;19.41;87.37
34031;BME280;20319;28.466;-16.274;2023-07-29T07:23:29;95725.97;;;19.53;87.41
34031;BME280;20319;28.466;-16.274;2023-07-29T07:25:54;95716.22;;;19.52;87.78
34031;BME280;20319;28.466;-16.274;2023-07-29T07:28:20;95567.94;;;18.54;87.72
34031;BME280;20319;28.466;-16.274;2023-07-29T07:30:45;95588.78;;;18.67;87.87
34031;BME280;20319;28.466;-16.274;2023-07-29T07:33:11;95745.97;;;19.57;88.49
34031;BME280;20319;28.466;-16.274;2023-07-29T07:35:37;95747.81;;;19.70;88.40
34031;BME280;20319;28.466;-16.274;2023-07-29T07:38:03;95759.19;;;19.72;88.45
34031;BME280;20319;28.466;-16.274;2023-07-29T07:40:31;95734.56;;;19.68;88.58
34031;BME280;20319;28.466;-16.274;2023-07-29T07:42:56;95609.47;;;18.98;88.49
34031;BME280;20319;28.466;-16.274;2023-07-29T07:45:22;95742.03;;;19.85;88.76
34031;BME280;20319;28.466;-16.274;2023-07-29T07:47:47;95752.13;;;19.93;88.49
34031;BME280;20319;28.466;-16.274;2023-07-29T07:50:13;95732.63;;;19.91;87.40
34031;BME280;20319;28.466;-16.274;2023-07-29T07:52:39;95585.88;;;19.07;86.70
34031;BME280;20319;28.466;-16.274;2023-07-29T07:55:05;95753.22;;;20.14;86.37
34031;BME280;20319;28.466;-16.274;2023-07-29T07:57:31;95601.53;;;19.33;85.65
34031;BME280;20319;28.466;-16.274;2023-07-29T07:59:56;95598.63;;;19.51;84.81
34031;BME280;20319;28.466;-16.274;2023-07-29T08:02:22;95756.13;;;20.57;83.40
34031;BME280;20319;28.466;-16.274;2023-07-29T08:04:48;95615.59;;;19.96;82.24
34031;BME280;20319;28.466;-16.274;2023-07-29T08:07:14;95749.03;;;20.95;80.44
34031;BME280;20319;28.466;-16.274;2023-07-29T08:09:39;95767.00;;;21.13;79.46
34031;BME280;20319;28.466;-16.274;2023-07-29T08:12:05;95777.25;;;21.07;78.89
34031;BME280;20319;28.466;-16.274;2023-07-29T08:14:31;95612.03;;;20.26;78.82
34031;BME280;20319;28.466;-16.274;2023-07-29T08:16:57;95603.56;;;20.27;78.78
34031;BME280;20319;28.466;-16.274;2023-07-29T08:19:22;95768.16;;;21.37;78.65
34031;BME280;20319;28.466;-16.274;2023-07-29T08:21:48;95750.19;;;21.28;78.23
34031;BME280;20319;28.466;-16.274;2023-07-29T08:24:14;95771.34;;;21.48;78.11
34031;BME280;20319;28.466;-16.274;2023-07-29T08:26:39;95767.97;;;21.59;77.58
34031;BME280;20319;28.466;-16.274;2023-07-29T08:29:05;95760.75;;;21.63;78.43
34031;BME280;20319;28.466;-16.274;2023-07-29T08:31:30;95622.00;;;20.82;78.62
34031;BME280;20319;28.466;-16.274;2023-07-29T08:33:59;95774.06;;;21.73;78.75
34031;BME280;20319;28.466;-16.274;2023-07-29T08:36:25;95751.31;;;21.52;78.03
34031;BME280;20319;28.466;-16.274;2023-07-29T08:38:50;95589.66;;;20.54;78.01
34031;BME280;20319;28.466;-16.274;2023-07-29T08:41:19;95768.13;;;21.71;77.58
34031;BME280;20319;28.466;-16.274;2023-07-29T08:43:59;95769.41;;;21.74;77.40
34031;BME280;20319;28.466;-16.274;2023-07-29T08:46:28;95749.03;;;21.71;78.07
34031;BME280;20319;28.466;-16.274;2023-07-29T08:48:55;95668.81;;;21.26;78.37
34031;BME280;20319;28.466;-16.274;2023-07-29T08:51:21;95748.56;;;21.86;78.90
34031;BME280;20319;28.466;-16.274;2023-07-29T08:53:49;95728.84;;;21.81;78.83
34031;BME280;20319;28.466;-16.274;2023-07-29T08:56:15;95762.50;;;22.02;79.27
34031;BME280;20319;28.466;-16.274;2023-07-29T08:58:41;95782.34;;;22.20;79.32
34031;BME280;20319;28.466;-16.274;2023-07-29T09:01:07;95786.16;;;22.27;80.10
34031;BME280;20319;28.466;-16.274;2023-07-29T09:03:33;95642.00;;;21.45;81.09
34031;BME280;20319;28.466;-16.274;2023-07-29T09:05:58;95788.88;;;22.36;81.88
34031;BME280;20319;28.466;-16.274;2023-07-29T09:08:26;95742.06;;;22.17;82.94
34031;BME280;20319;28.466;-16.274;2023-07-29T09:10:53;95803.78;;;22.38;82.86
34031;BME280;20319;28.466;-16.274;2023-07-29T09:13:19;95635.59;;;21.50;82.11
34031;BME280;20319;28.466;-16.274;2023-07-29T09:15:45;95763.97;;;22.46;80.72
34031;BME280;20319;28.466;-16.274;2023-07-29T09:18:15;95772.44;;;22.61;80.49
34031;BME280;20319;28.466;-16.274;2023-07-29T09:20:41;95776.88;;;22.74;80.34
34031;BME280;20319;28.466;-16.274;2023-07-29T09:23:09;95761.84;;;22.51;81.79
34031;BME280;20319;28.466;-16.274;2023-07-29T09:25:38;95780.44;;;22.66;82.61
34031;BME280;20319;28.466;-16.274;2023-07-29T09:28:09;95774.66;;;22.68;82.64
34031;BME280;20319;28.466;-16.274;2023-07-29T09:30:37;95606.03;;;21.60;81.97
34031;BME280;20319;28.466;-16.274;2023-07-29T09:33:02;95656.69;;;21.70;82.32
34031;BME280;20319;28.466;-16.274;2023-07-29T09:35:30;95762.53;;;22.40;82.78
34031;BME280;20319;28.466;-16.274;2023-07-29T09:37:57;95642.06;;;21.91;81.85
34031;BME280;20319;28.466;-16.274;2023-07-29T09:40:23;95781.03;;;22.72;80.78
34031;BME280;20319;28.466;-16.274;2023-07-29T09:42:54;95756.19;;;22.65;79.13
34031;BME280;20319;28.466;-16.274;2023-07-29T09:45:26;95637.13;;;21.76;79.15
34031;BME280;20319;28.466;-16.274;2023-07-29T09:47:57;95755.31;;;22.44;79.84
34031;BME280;20319;28.466;-16.274;2023-07-29T09:50:24;95769.72;;;22.53;79.18
34031;BME280;20319;28.466;-16.274;2023-07-29T09:52:51;95788.47;;;22.63;78.46
34031;BME280;20319;28.466;-16.274;2023-07-29T09:55:18;95736.19;;;22.52;78.05
34031;BME280;20319;28.466;-16.274;2023-07-29T09:57:45;95788.25;;;22.76;77.35
34031;BME280;20319;28.466;-16.274;2023-07-29T10:00:11;95788.47;;;22.63;77.69
34031;BME280;20319;28.466;-16.274;2023-07-29T10:02:42;95742.25;;;22.12;77.86
34031;BME280;20319;28.466;-16.274;2023-07-29T10:05:08;95723.06;;;21.74;78.16
34031;BME280;20319;28.466;-16.274;2023-07-29T10:07:36;95645.09;;;21.10;78.57
34031;BME280;20319;28.466;-16.274;2023-07-29T10:10:04;95802.13;;;22.00;78.63
34031;BME280;20319;28.466;-16.274;2023-07-29T10:12:33;95817.22;;;21.88;78.58
34031;BME280;20319;28.466;-16.274;2023-07-29T10:15:05;95787.69;;;21.65;78.42
34031;BME280;20319;28.466;-16.274;2023-07-29T10:17:35;95773.44;;;21.42;78.52
34031;BME280;20319;28.466;-16.274;2023-07-29T10:20:03;95770.88;;;21.37;78.58
34031;BME280;20319;28.466;-16.274;2023-07-29T10:22:37;95717.50;;;21.02;78.54
34031;BME280;20319;28.466;-16.274;2023-07-29T10:25:05;95807.09;;;21.46;78.90
34031;BME280;20319;28.466;-16.274;2023-07-29T10:30:11;95813.47;;;21.33;77.81
34031;BME280;20319;28.466;-16.274;2023-07-29T10:32:38;95689.53;;;20.54;77.93
34031;BME280;20319;28.466;-16.274;2023-07-29T10:35:04;95685.31;;;20.39;77.87
34031;BME280;20319;28.466;-16.274;2023-07-29T10:37:30;95665.16;;;20.32;77.87
34031;BME280;20319;28.466;-16.274;2023-07-29T10:39:56;95802.72;;;21.11;77.58
34031;BME280;20319;28.466;-16.274;2023-07-29T10:42:22;95626.66;;;20.08;77.38
34031;BME280;20319;28.466;-16.274;2023-07-29T10:44:52;95778.69;;;21.05;77.44
34031;BME280;20319;28.466;-16.274;2023-07-29T10:47:25;95686.31;;;20.52;77.67
34031;BME280;20319;28.466;-16.274;2023-07-29T10:49:54;95792.34;;;21.22;77.95
34031;BME280;20319;28.466;-16.274;2023-07-29T10:54:55;95658.19;;;20.57;77.58
34031;BME280;20319;28.466;-16.274;2023-07-29T10:57:50;95800.50;;;21.47;77.75
34031;BME280;20319;28.466;-16.274;2023-07-29T11:00:16;95806.28;;;21.46;78.63
34031;BME280;20319;28.466;-16.274;2023-07-29T11:02:41;95601.13;;;20.34;79.22
34031;BME280;20319;28.466;-16.274;2023-07-29T11:05:17;95808.38;;;21.57;79.76
34031;BME280;20319;28.466;-16.274;2023-07-29T11:07:47;95797.63;;;21.61;81.16
34031;BME280;20319;28.466;-16.274;2023-07-29T11:10:13;95781.59;;;21.51;80.91
34031;BME280;20319;28.466;-16.274;2023-07-29T11:12:48;95809.50;;;21.65;81.18
34031;BME280;20319;28.466;-16.274;2023-07-29T11:15:29;95820.22;;;21.70;80.92
34031;BME280;20319;28.466;-16.274;2023-07-29T11:18:00;95791.53;;;21.64;80.70
34031;BME280;20319;28.466;-16.274;2023-07-29T11:20:27;95718.00;;;21.21;80.89
34031;BME280;20319;28.466;-16.274;2023-07-29T11:22:54;95789.31;;;21.83;82.00
34031;BME280;20319;28.466;-16.274;2023-07-29T11:25:22;95636.78;;;20.98;81.77
34031;BME280;20319;28.466;-16.274;2023-07-29T11:27:51;95766.06;;;21.77;81.81
34031;BME280;20319;28.466;-16.274;2023-07-29T11:30:17;95810.97;;;21.97;82.18
34031;BME280;20319;28.466;-16.274;2023-07-29T11:32:44;95807.25;;;21.92;82.84
34031;BME280;20319;28.466;-16.274;2023-07-29T11:35:15;95800.69;;;21.93;82.49
34031;BME280;20319;28.466;-16.274;2023-07-29T11:37:43;95764.44;;;21.67;82.10
34031;BME280;20319;28.466;-16.274;2023-07-29T11:40:14;95643.50;;;21.00;82.17
34031;BME280;20319;28.466;-16.274;2023-07-29T11:42:40;95791.56;;;21.89;82.37
34031;BME280;20319;28.466;-16.274;2023-07-29T11:45:06;95639.81;;;20.96;81.55
34031;BME280;20319;28.466;-16.274;2023-07-29T11:47:33;95763.34;;;21.77;81.30
34031;BME280;20319;28.466;-16.274;2023-07-29T11:50:07;95766.41;;;21.75;81.03
34031;BME280;20319;28.466;-16.274;2023-07-29T11:52:35;95773.88;;;21.95;80.81
34031;BME280;20319;28.466;-16.274;2023-07-29T11:55:02;95781.75;;;21.97;80.49
34031;BME280;20319;28.466;-16.274;2023-07-29T11:57:34;95782.38;;;22.03;79.73
34031;BME280;20319;28.466;-16.274;2023-07-29T12:00:06;95625.22;;;21.18;78.93
34031;BME280;20319;28.466;-16.274;2023-07-29T12:02:32;95750.81;;;21.93;78.65
34031;BME280;20319;28.466;-16.274;2023-07-29T12:05:03;95771.78;;;22.10;77.62
34031;BME280;20319;28.466;-16.274;2023-07-29T12:07:29;95695.38;;;21.55;77.39
34031;BME280;20319;28.466;-16.274;2023-07-29T12:09:55;95681.59;;;21.51;77.08
34031;BME280;20319;28.466;-16.274;2023-07-29T12:12:22;95674.69;;;21.45;76.50
34031;BME280;20319;28.466;-16.274;2023-07-29T12:14:48;95775.63;;;22.09;76.89
34031;BME280;20319;28.466;-16.274;2023-07-29T12:17:14;95732.81;;;21.92;76.84
34031;BME280;20319;28.466;-16.274;2023-07-29T12:19:41;95622.34;;;21.23;76.33
34031;BME280;20319;28.466;-16.274;2023-07-29T12:22:09;95761.66;;;22.10;77.10
34031;BME280;20319;28.466;-16.274;2023-07-29T12:24:39;95724.81;;;21.95;76.58
34031;BME280;20319;28.466;-16.274;2023-07-29T12:27:05;95635.13;;;21.31;76.45
34031;BME280;20319;28.466;-16.274;2023-07-29T12:29:31;95625.19;;;21.35;75.42
34031;BME280;20319;28.466;-16.274;2023-07-29T12:31:59;95753.31;;;22.24;75.65
34031;BME280;20319;28.466;-16.274;2023-07-29T12:34:26;95721.56;;;22.11;76.67
34031;BME280;20319;28.466;-16.274;2023-07-29T12:36:54;95741.56;;;22.23;77.14
34031;BME280;20319;28.466;-16.274;2023-07-29T12:39:25;95607.56;;;21.41;76.43
34031;BME280;20319;28.466;-16.274;2023-07-29T12:41:53;95715.16;;;22.07;77.97
34031;BME280;20319;28.466;-16.274;2023-07-29T12:44:20;95769.13;;;22.39;79.54
34031;BME280;20319;28.466;-16.274;2023-07-29T12:46:46;95724.41;;;22.23;79.18
34031;BME280;20319;28.466;-16.274;2023-07-29T12:49:12;95734.06;;;22.49;79.22
34031;BME280;20319;28.466;-16.274;2023-07-29T12:51:37;95739.88;;;22.85;79.42